Terminal Aerodrome Forecast
Issued by NWS St Louis, MO

Home | Current Version | Previous Version | Text Only | Print | Product List | Glossary On
Versions: 1 2 3 4 5 6 7 8 9 10 11 12 13 14 15 16 17 18 19 20 21 22 23 24 25 26 27 28 29
000
FTUS43 KLSX 222052 AAA
TAFSTL
TAF AMD
KSTL 222052Z 2221/2324 20008KT P6SM SCT025
     FM231100 00000KT 2SM BR SCT030
     FM231600 11005KT P6SM BKN015
     FM231800 14006KT P6SM BKN040=

USA.gov is the U.S. government's official web portal to all federal, state and local government web resources and services.